createdAt,value
2022-11-14T00:00:32.866Z,12.50
2022-11-14T00:03:01.896Z,12.67
2022-11-14T00:05:30.039Z,12.72
2022-11-14T00:07:58.159Z,12.81
2022-11-14T00:10:26.481Z,12.68
2022-11-14T00:12:54.156Z,12.68
2022-11-14T00:15:23.298Z,12.85
2022-11-14T00:17:51.093Z,12.69
2022-11-14T00:20:18.911Z,12.63
2022-11-14T00:22:46.572Z,12.48
2022-11-14T00:25:14.271Z,12.42
2022-11-14T00:27:41.976Z,12.38
2022-11-14T00:30:10.268Z,12.45
2022-11-14T00:32:39.412Z,12.57
2022-11-14T00:35:09.088Z,12.42
2022-11-14T00:37:36.970Z,12.54
2022-11-14T00:40:05.517Z,12.33
2022-11-14T00:42:34.533Z,12.49
2022-11-14T00:45:02.210Z,12.66
2022-11-14T00:47:30.123Z,12.72
2022-11-14T00:49:59.277Z,12.75
2022-11-14T00:52:26.978Z,12.62
2022-11-14T00:54:54.765Z,12.66
2022-11-14T00:57:22.579Z,12.50
2022-11-14T00:59:50.330Z,12.61
2022-11-14T01:02:18.130Z,12.65
2022-11-14T01:04:45.861Z,12.67
2022-11-14T01:07:15.005Z,12.59
2022-11-14T01:09:42.690Z,12.57
2022-11-14T01:12:10.465Z,12.53
2022-11-14T01:14:38.215Z,12.50
2022-11-14T01:17:05.991Z,12.58
2022-11-14T01:19:33.981Z,12.45
2022-11-14T01:22:05.962Z,12.56
2022-11-14T01:24:35.725Z,12.44
2022-11-14T01:27:03.613Z,12.48
2022-11-14T01:29:31.430Z,12.47
2022-11-14T01:31:59.200Z,12.59
2022-11-14T01:34:27.376Z,12.34
2022-11-14T01:36:55.071Z,12.50
2022-11-14T01:39:22.860Z,12.44
2022-11-14T01:41:51.956Z,12.38
2022-11-14T01:44:42.488Z,12.29
2022-11-14T01:47:12.568Z,12.32
2022-11-14T01:49:42.560Z,12.33
2022-11-14T01:52:13.200Z,12.35
2022-11-14T01:54:46.205Z,12.24
2022-11-14T01:57:17.805Z,12.48
2022-11-14T01:59:50.436Z,12.65
2022-11-14T02:02:20.179Z,12.63
2022-11-14T02:04:52.252Z,12.48
2022-11-14T02:07:20.743Z,12.59
2022-11-14T02:09:50.022Z,12.51
2022-11-14T02:12:20.624Z,12.47
2022-11-14T02:14:50.489Z,12.57
2022-11-14T02:17:29.454Z,12.59
2022-11-14T02:20:07.149Z,12.69
2022-11-14T02:22:34.868Z,12.69
2022-11-14T02:25:02.989Z,12.59
2022-11-14T02:27:31.543Z,12.65
2022-11-14T02:30:05.553Z,12.60
2022-11-14T02:32:56.906Z,12.62
2022-11-14T02:35:22.592Z,12.64
2022-11-14T02:37:50.362Z,12.57
2022-11-14T02:40:18.453Z,12.60
2022-11-14T02:42:46.195Z,12.51
2022-11-14T02:45:14.672Z,12.56
2022-11-14T02:47:42.449Z,12.57
2022-11-14T02:50:10.914Z,12.43
2022-11-14T02:52:40.001Z,12.46
2022-11-14T02:55:08.350Z,12.58
2022-11-14T02:57:36.156Z,12.58
2022-11-14T03:00:06.770Z,12.54
2022-11-14T03:02:37.819Z,12.55
2022-11-14T03:05:05.980Z,12.58
2022-11-14T03:07:33.895Z,12.33
2022-11-14T03:10:03.174Z,12.38
2022-11-14T03:12:30.873Z,12.45
2022-11-14T03:14:58.616Z,12.30
2022-11-14T03:17:26.319Z,12.49
2022-11-14T03:19:53.991Z,12.36
2022-11-14T03:22:21.736Z,12.60
2022-11-14T03:24:49.444Z,12.69
2022-11-14T03:27:18.562Z,12.57
2022-11-14T03:29:46.252Z,12.63
2022-11-14T03:32:14.015Z,12.62
2022-11-14T03:34:41.743Z,12.47
2022-11-14T03:37:09.541Z,12.47
2022-11-14T03:39:37.266Z,12.36
2022-11-14T03:42:05.131Z,12.36
2022-11-14T03:44:34.223Z,12.44
2022-11-14T03:47:01.986Z,12.42
2022-11-14T03:49:29.655Z,12.55
2022-11-14T03:51:57.414Z,12.60
2022-11-14T03:54:25.156Z,12.50
2022-11-14T03:56:52.813Z,12.53
2022-11-14T03:59:20.584Z,12.58
2022-11-14T04:01:49.872Z,12.52
2022-11-14T04:04:17.649Z,12.73
2022-11-14T04:06:46.035Z,12.48
2022-11-14T04:09:14.056Z,12.58
2022-11-14T04:11:41.719Z,12.59
2022-11-14T04:14:10.509Z,12.59
2022-11-14T04:16:38.181Z,12.34
2022-11-14T04:19:07.664Z,12.35
2022-11-14T04:21:35.384Z,12.42
2022-11-14T04:24:07.069Z,12.29
2022-11-14T04:26:37.842Z,12.40
2022-11-14T04:29:05.547Z,12.41
2022-11-14T04:31:33.300Z,12.68
2022-11-14T04:34:01.084Z,12.31
2022-11-14T04:36:30.165Z,12.38
2022-11-14T04:38:57.939Z,12.55
2022-11-14T04:41:25.777Z,12.60
2022-11-14T04:43:53.442Z,12.47
2022-11-14T04:46:21.248Z,12.36
2022-11-14T04:48:48.967Z,12.38
2022-11-14T04:51:16.875Z,12.52
2022-11-14T04:53:46.052Z,12.69
2022-11-14T04:56:13.731Z,12.60
2022-11-14T04:58:41.468Z,12.65
2022-11-14T05:01:09.861Z,12.80
2022-11-14T05:03:37.580Z,12.95
2022-11-14T05:06:06.069Z,12.87
2022-11-14T05:08:33.858Z,13.09
2022-11-14T05:11:02.928Z,13.20
2022-11-14T05:13:30.792Z,13.03
2022-11-14T05:16:00.093Z,13.09
2022-11-14T05:18:28.585Z,13.16
2022-11-14T05:20:59.417Z,13.04
2022-11-14T05:23:27.136Z,13.23
2022-11-14T05:26:03.572Z,13.13
2022-11-14T05:28:31.810Z,12.93
2022-11-14T05:31:03.782Z,13.25
2022-11-14T05:33:31.920Z,13.11
2022-11-14T05:36:03.602Z,13.23
2022-11-14T05:38:31.500Z,13.28
2022-11-14T05:41:06.989Z,13.00
2022-11-14T05:43:34.741Z,13.10
2022-11-14T05:46:03.320Z,13.32
2022-11-14T05:48:32.539Z,13.44
2022-11-14T05:51:02.549Z,13.52
2022-11-14T05:53:31.627Z,13.68
2022-11-14T05:56:04.142Z,13.74
2022-11-14T05:58:32.430Z,13.73
2022-11-14T06:01:04.773Z,13.70
2022-11-14T06:03:33.963Z,13.86
2022-11-14T06:06:02.608Z,13.86
2022-11-14T06:08:31.266Z,13.76
2022-11-14T06:11:05.861Z,13.86
2022-11-14T06:13:34.124Z,13.91
2022-11-14T06:16:02.475Z,13.98
2022-11-14T06:18:32.837Z,13.83
2022-11-14T06:21:01.506Z,13.93
2022-11-14T06:23:30.036Z,13.99
2022-11-14T06:26:01.615Z,13.93
2022-11-14T06:28:31.357Z,14.14
2022-11-14T06:31:00.466Z,14.13
2022-11-14T06:33:28.275Z,14.09
2022-11-14T06:36:00.206Z,14.23
2022-11-14T06:38:28.900Z,14.20
2022-11-14T06:41:03.434Z,14.15
2022-11-14T06:43:35.204Z,14.17
2022-11-14T06:46:03.256Z,14.14
2022-11-14T06:48:32.244Z,14.13
2022-11-14T06:51:00.699Z,13.79
2022-11-14T06:53:30.053Z,13.96
2022-11-14T06:55:59.304Z,14.09
2022-11-14T06:58:28.635Z,14.21
2022-11-14T07:00:58.243Z,14.18
2022-11-14T07:03:26.034Z,14.23
2022-11-14T07:05:53.842Z,14.15
2022-11-14T07:08:21.528Z,14.25
2022-11-14T07:10:49.355Z,14.26
2022-11-14T07:13:17.101Z,14.26
2022-11-14T07:15:51.406Z,14.30
2022-11-14T07:18:20.974Z,14.37
2022-11-14T07:20:48.874Z,14.31
2022-11-14T07:23:22.518Z,14.34
2022-11-14T07:25:50.744Z,14.33
2022-11-14T07:28:18.514Z,14.36
2022-11-14T07:30:46.469Z,14.27
2022-11-14T07:33:14.189Z,14.24
2022-11-14T07:35:43.491Z,14.21
2022-11-14T07:38:11.212Z,14.25
2022-11-14T07:40:38.969Z,14.22
2022-11-14T07:43:06.671Z,14.14
2022-11-14T07:45:34.432Z,14.03
2022-11-14T07:48:03.455Z,14.14
2022-11-14T07:50:31.684Z,14.08
2022-11-14T07:53:00.794Z,13.88
2022-11-14T07:55:28.483Z,13.87
2022-11-14T07:57:56.920Z,13.81
2022-11-14T08:00:24.656Z,14.00
2022-11-14T08:02:52.448Z,14.00
2022-11-14T08:05:20.459Z,14.07
2022-11-14T08:07:48.400Z,14.04
2022-11-14T08:10:18.125Z,14.02
2022-11-14T08:12:45.988Z,13.96
2022-11-14T08:15:15.175Z,14.10
2022-11-14T08:17:42.903Z,14.01
2022-11-14T08:20:11.488Z,14.14
2022-11-14T08:22:39.166Z,14.15
2022-11-14T08:25:08.006Z,14.28
2022-11-14T08:27:37.083Z,14.25
2022-11-14T08:30:05.772Z,14.39
2022-11-14T08:32:33.496Z,14.26
2022-11-14T08:35:01.233Z,14.24
2022-11-14T08:37:28.997Z,14.28
2022-11-14T08:39:56.812Z,14.21
2022-11-14T08:42:24.601Z,14.11
2022-11-14T08:44:53.655Z,14.14
2022-11-14T08:47:21.525Z,14.23
2022-11-14T08:49:49.257Z,14.02
2022-11-14T08:52:17.185Z,14.13
2022-11-14T08:54:44.997Z,14.00
2022-11-14T08:57:15.224Z,14.18
2022-11-14T08:59:43.211Z,14.27
2022-11-14T09:02:13.637Z,14.41
2022-11-14T09:04:42.142Z,14.30
2022-11-14T09:07:10.320Z,14.20
2022-11-14T09:09:38.087Z,14.34
2022-11-14T09:12:06.493Z,14.71
2022-11-14T09:14:34.248Z,14.76
2022-11-14T09:17:05.929Z,14.93
2022-11-14T09:19:35.323Z,15.21
2022-11-14T09:22:03.103Z,15.08
2022-11-14T09:24:30.760Z,15.15
2022-11-14T09:26:58.513Z,15.20
2022-11-14T09:29:26.410Z,15.35
2022-11-14T09:31:55.053Z,15.44
2022-11-14T09:34:22.830Z,15.50
2022-11-14T09:36:51.925Z,15.69
2022-11-14T09:39:20.484Z,15.83
2022-11-14T09:42:01.774Z,15.83
2022-11-14T09:44:55.310Z,15.95
2022-11-14T09:47:26.799Z,16.07
2022-11-14T09:50:00.434Z,15.86
2022-11-14T09:52:36.163Z,16.00
2022-11-14T09:55:12.454Z,16.11
2022-11-14T09:57:41.974Z,16.09
2022-11-14T10:00:18.454Z,16.13
2022-11-14T10:03:08.775Z,16.20
2022-11-14T10:05:46.369Z,16.28
2022-11-14T10:08:29.804Z,16.34
2022-11-14T10:11:03.153Z,16.41
2022-11-14T10:13:41.366Z,16.47
2022-11-14T10:16:15.084Z,16.54
2022-11-14T10:19:06.718Z,16.61
2022-11-14T10:21:51.585Z,16.74
2022-11-14T10:24:38.199Z,16.64
2022-11-14T10:27:08.875Z,16.83
2022-11-14T10:30:02.507Z,16.93
2022-11-14T10:32:47.557Z,16.95
2022-11-14T10:35:19.647Z,17.09
2022-11-14T10:37:56.922Z,17.14
2022-11-14T10:40:30.633Z,17.25
2022-11-14T10:43:04.701Z,17.24
2022-11-14T10:45:37.432Z,17.15
2022-11-14T10:48:14.186Z,17.07
2022-11-14T10:50:47.952Z,17.01
2022-11-14T10:53:25.925Z,17.00
2022-11-14T10:56:04.340Z,16.83
2022-11-14T10:58:46.842Z,16.84
2022-11-14T11:01:38.988Z,17.11
2022-11-14T11:04:21.383Z,16.84
2022-11-14T11:06:50.183Z,16.99
2022-11-14T11:09:42.122Z,16.89
2022-11-14T11:12:19.270Z,16.65
2022-11-14T11:14:48.651Z,16.59
2022-11-14T11:17:19.707Z,16.59
2022-11-14T11:19:48.875Z,16.33
2022-11-14T11:22:29.676Z,16.72
2022-11-14T11:24:57.497Z,16.80
2022-11-14T11:27:28.656Z,16.30
2022-11-14T11:30:10.750Z,16.39
2022-11-14T11:32:38.441Z,16.03
2022-11-14T11:35:13.846Z,16.37
2022-11-14T11:37:46.411Z,16.68
2022-11-14T11:40:19.136Z,17.00
2022-11-14T11:45:49.628Z,16.44
2022-11-14T11:48:19.839Z,16.66
2022-11-14T11:50:48.540Z,16.64
2022-11-14T11:53:22.157Z,16.86
2022-11-14T11:55:52.506Z,17.32
2022-11-14T11:58:26.909Z,16.75
2022-11-14T12:00:55.860Z,17.54
2022-11-14T12:03:25.768Z,17.03
2022-11-14T12:06:02.589Z,16.62
2022-11-14T12:08:38.212Z,16.20
2022-11-14T12:11:11.025Z,16.74
2022-11-14T12:14:10.927Z,16.52
2022-11-14T12:17:03.528Z,16.63
2022-11-14T12:19:42.047Z,17.12
2022-11-14T12:22:41.377Z,17.25
2022-11-14T12:25:29.970Z,16.90
2022-11-14T12:28:12.698Z,16.57
2022-11-14T12:30:43.596Z,16.24
2022-11-14T12:33:17.647Z,16.78
2022-11-14T12:35:52.422Z,16.24
2022-11-14T12:38:21.851Z,16.60
2022-11-14T12:40:55.408Z,16.36
2022-11-14T12:43:36.889Z,16.53
2022-11-14T12:46:11.082Z,16.37
2022-11-14T12:48:40.605Z,16.95
2022-11-14T12:51:52.345Z,16.93
2022-11-14T12:54:45.964Z,16.89
2022-11-14T12:57:40.580Z,16.74
2022-11-14T13:00:10.051Z,16.94
2022-11-14T13:03:05.202Z,16.58
2022-11-14T13:05:55.084Z,16.38
2022-11-14T13:08:41.065Z,16.62
2022-11-14T13:11:54.688Z,16.41
2022-11-14T13:14:39.925Z,16.03
2022-11-14T13:17:29.167Z,16.55
2022-11-14T13:20:15.840Z,15.87
2022-11-14T13:22:44.961Z,15.67
2022-11-14T13:25:23.658Z,15.72
2022-11-14T13:28:18.860Z,16.09
2022-11-14T13:31:08.235Z,16.77
2022-11-14T13:33:42.543Z,16.70
2022-11-14T13:36:18.426Z,17.35
2022-11-14T13:39:23.725Z,17.14
2022-11-14T13:42:15.232Z,16.47
2022-11-14T13:45:21.226Z,16.76
2022-11-14T13:48:24.416Z,16.76
2022-11-14T13:51:00.678Z,16.84
2022-11-14T13:53:36.128Z,16.67
2022-11-14T13:56:15.995Z,17.47
2022-11-14T13:59:15.029Z,18.01
2022-11-14T14:02:05.795Z,17.19
2022-11-14T14:04:47.658Z,17.27
2022-11-14T14:07:26.961Z,16.73
2022-11-14T14:10:08.626Z,17.15
2022-11-14T14:12:51.383Z,16.85
2022-11-14T14:15:26.311Z,16.87
2022-11-14T14:18:08.266Z,16.40
2022-11-14T14:20:46.744Z,16.52
2022-11-14T14:23:25.818Z,15.64
2022-11-14T14:26:05.437Z,16.61
2022-11-14T14:28:44.768Z,16.94
2022-11-14T14:31:15.708Z,17.17
2022-11-14T14:33:45.086Z,17.32
2022-11-14T14:36:21.616Z,16.94
2022-11-14T14:38:50.091Z,16.27
2022-11-14T14:41:21.049Z,16.47
2022-11-14T14:43:56.039Z,16.64
2022-11-14T14:46:30.168Z,16.32
2022-11-14T14:49:00.960Z,16.78
2022-11-14T14:51:33.068Z,16.77
2022-11-14T14:54:00.857Z,17.01
2022-11-14T14:56:30.133Z,16.71
2022-11-14T14:58:57.886Z,16.65
2022-11-14T15:01:33.328Z,16.80
2022-11-14T15:04:05.346Z,16.58
2022-11-14T15:06:35.169Z,17.02
2022-11-14T15:09:10.611Z,17.07
2022-11-14T15:11:42.943Z,16.93
2022-11-14T15:14:16.115Z,16.42
2022-11-14T15:16:45.317Z,16.41
2022-11-14T15:19:16.164Z,16.57
2022-11-14T15:21:44.031Z,16.95
2022-11-14T15:24:16.915Z,16.73
2022-11-14T15:26:49.670Z,16.68
2022-11-14T15:29:20.022Z,16.95
2022-11-14T15:31:51.417Z,16.85
2022-11-14T15:34:28.551Z,16.62
2022-11-14T15:37:24.363Z,16.65
2022-11-14T15:39:52.482Z,16.40
2022-11-14T15:42:29.352Z,16.28
2022-11-14T15:44:57.506Z,16.34
2022-11-14T15:47:27.223Z,16.21
2022-11-14T15:50:02.557Z,16.32
2022-11-14T15:52:35.494Z,16.61
2022-11-14T15:55:03.633Z,16.56
2022-11-14T15:57:39.313Z,16.70
2022-11-14T16:00:08.536Z,16.70
2022-11-14T16:02:46.273Z,16.70
2022-11-14T16:05:15.469Z,16.61
2022-11-14T16:07:43.541Z,16.40
2022-11-14T16:10:16.280Z,16.22
2022-11-14T16:12:50.935Z,16.15
2022-11-14T16:15:21.882Z,15.98
2022-11-14T16:17:51.435Z,15.75
2022-11-14T16:20:21.072Z,15.92
2022-11-14T16:22:50.356Z,15.86
2022-11-14T16:25:19.756Z,15.84
2022-11-14T16:27:49.303Z,15.67
2022-11-14T16:30:19.304Z,15.59
2022-11-14T16:32:48.593Z,15.61
2022-11-14T16:35:18.801Z,15.57
2022-11-14T16:37:46.805Z,15.11
2022-11-14T16:40:16.702Z,15.28
2022-11-14T16:42:44.724Z,15.28
2022-11-14T16:45:14.166Z,15.02
2022-11-14T16:47:41.905Z,14.73
2022-11-14T16:50:10.839Z,14.98
2022-11-14T16:52:39.148Z,14.72
2022-11-14T16:55:07.749Z,14.83
2022-11-14T16:57:37.006Z,14.83
2022-11-14T17:00:06.152Z,14.82
2022-11-14T17:02:35.251Z,14.69
2022-11-14T17:05:03.114Z,14.81
2022-11-14T17:07:33.320Z,14.71
2022-11-14T17:10:01.614Z,14.79
2022-11-14T17:12:29.672Z,14.64
2022-11-14T17:14:57.448Z,14.56
2022-11-14T17:17:25.705Z,14.78
2022-11-14T17:19:54.755Z,14.57
2022-11-14T17:22:22.536Z,14.66
2022-11-14T17:24:50.254Z,14.58
2022-11-14T17:27:17.936Z,14.64
2022-11-14T17:29:46.592Z,14.63
2022-11-14T17:32:14.288Z,14.56
2022-11-14T17:34:42.082Z,14.47
2022-11-14T17:37:11.200Z,14.31
2022-11-14T17:39:38.882Z,14.31
2022-11-14T17:42:07.303Z,14.25
2022-11-14T17:44:35.013Z,14.19
2022-11-14T17:47:02.765Z,14.11
2022-11-14T17:49:32.009Z,14.05
2022-11-14T17:51:59.706Z,14.07
2022-11-14T17:54:28.849Z,14.06
2022-11-14T17:56:57.464Z,14.01
2022-11-14T17:59:25.296Z,13.96
2022-11-14T18:01:54.596Z,13.74
2022-11-14T18:04:22.432Z,13.85
2022-11-14T18:06:50.181Z,13.73
2022-11-14T18:09:17.945Z,13.60
2022-11-14T18:11:47.164Z,13.55
2022-11-14T18:14:14.945Z,13.56
2022-11-14T18:17:10.565Z,13.65
2022-11-14T18:19:30.490Z,13.58
2022-11-14T18:21:58.169Z,13.76
2022-11-14T18:24:25.975Z,13.59
2022-11-14T18:26:55.501Z,13.61
2022-11-14T18:29:23.208Z,13.58
2022-11-14T18:31:50.976Z,13.57
2022-11-14T18:34:19.508Z,13.56
2022-11-14T18:36:47.434Z,13.78
2022-11-14T18:39:15.193Z,13.57
2022-11-14T18:41:42.860Z,13.74
2022-11-14T18:44:11.964Z,13.76
2022-11-14T18:46:39.710Z,13.73
2022-11-14T18:49:07.475Z,13.65
2022-11-14T18:51:41.892Z,13.81
2022-11-14T18:54:12.035Z,13.86
2022-11-14T18:56:40.352Z,13.87
2022-11-14T18:59:08.401Z,13.83
2022-11-14T19:01:37.588Z,13.74
2022-11-14T19:04:07.056Z,13.83
2022-11-14T19:06:37.071Z,13.88
2022-11-14T19:09:11.087Z,13.76
2022-11-14T19:11:56.835Z,13.85
2022-11-14T19:14:25.150Z,13.85
2022-11-14T19:16:54.395Z,13.73
2022-11-14T19:19:22.274Z,13.78
2022-11-14T19:21:50.416Z,13.77
2022-11-14T19:24:18.557Z,13.76
2022-11-14T19:26:46.228Z,13.69
2022-11-14T19:29:14.312Z,13.71
2022-11-14T19:31:42.534Z,13.69
2022-11-14T19:34:11.818Z,13.58
2022-11-14T19:37:09.204Z,13.65
2022-11-14T19:39:27.347Z,13.53
2022-11-14T19:41:55.087Z,13.50
2022-11-14T19:44:22.799Z,13.52
2022-11-14T19:46:50.563Z,13.54
2022-11-14T19:49:20.054Z,13.55
2022-11-14T19:51:48.816Z,13.64
2022-11-14T19:54:16.796Z,13.68
2022-11-14T19:56:44.520Z,13.71
2022-11-14T19:59:15.549Z,13.68
2022-11-14T20:01:44.798Z,13.64
2022-11-14T20:04:14.212Z,13.77
2022-11-14T20:06:43.365Z,13.94
2022-11-14T20:09:11.857Z,13.97
2022-11-14T20:11:39.877Z,13.90
2022-11-14T20:14:07.768Z,13.94
2022-11-14T20:16:37.648Z,13.93
2022-11-14T20:19:05.858Z,13.92
2022-11-14T20:21:35.282Z,13.89
2022-11-14T20:24:04.784Z,13.65
2022-11-14T20:26:32.441Z,13.92
2022-11-14T20:29:00.367Z,13.85
2022-11-14T20:31:30.169Z,13.76
2022-11-14T20:33:57.955Z,13.69
2022-11-14T20:36:38.976Z,13.91
2022-11-14T20:39:16.721Z,13.84
2022-11-14T20:41:45.205Z,13.88
2022-11-14T20:44:12.993Z,13.67
2022-11-14T20:46:40.803Z,13.93
2022-11-14T20:49:08.742Z,14.17
2022-11-14T20:51:36.613Z,13.86
2022-11-14T20:54:04.743Z,13.90
2022-11-14T20:56:33.776Z,14.10
2022-11-14T20:59:01.479Z,14.09
2022-11-14T21:01:29.289Z,14.11
2022-11-14T21:03:57.056Z,14.16
2022-11-14T21:06:24.729Z,14.09
2022-11-14T21:08:52.508Z,14.07
2022-11-14T21:11:20.997Z,14.25
2022-11-14T21:13:59.671Z,13.88
2022-11-14T21:16:32.047Z,13.96
2022-11-14T21:19:00.436Z,14.12
2022-11-14T21:21:30.312Z,14.17
2022-11-14T21:23:58.629Z,13.82
2022-11-14T21:26:27.895Z,13.93
2022-11-14T21:28:58.452Z,14.05
2022-11-14T21:31:31.588Z,13.99
2022-11-14T21:34:01.384Z,13.86
2022-11-14T21:36:46.641Z,13.81
2022-11-14T21:39:16.299Z,13.72
2022-11-14T21:41:45.133Z,13.80
2022-11-14T21:44:16.562Z,14.11
2022-11-14T21:46:46.330Z,13.92
2022-11-14T21:49:14.260Z,14.27
2022-11-14T21:51:41.978Z,14.35
2022-11-14T21:54:10.276Z,14.48
2022-11-14T21:56:38.212Z,14.45
2022-11-14T21:59:15.613Z,14.49
2022-11-14T22:02:03.976Z,14.40
2022-11-14T22:04:32.551Z,14.44
2022-11-14T22:07:00.936Z,14.40
2022-11-14T22:09:28.969Z,14.52
2022-11-14T22:11:57.222Z,14.44
2022-11-14T22:14:26.613Z,14.54
2022-11-14T22:16:54.281Z,14.32
2022-11-14T22:19:21.979Z,14.41
2022-11-14T22:21:49.835Z,14.54
2022-11-14T22:24:17.704Z,14.51
2022-11-14T22:26:45.426Z,14.47
2022-11-14T22:29:13.201Z,14.38
2022-11-14T22:31:42.251Z,14.46
2022-11-14T22:34:10.069Z,14.02
2022-11-14T22:36:37.907Z,14.31
2022-11-14T22:39:05.980Z,14.19
2022-11-14T22:41:34.517Z,14.20
2022-11-14T22:44:02.786Z,14.22
2022-11-14T22:46:30.492Z,14.21
2022-11-14T22:48:59.589Z,14.12
2022-11-14T22:51:28.472Z,14.21
2022-11-14T22:53:57.902Z,14.30
2022-11-14T22:56:27.333Z,14.32
2022-11-14T22:58:55.253Z,14.00
2022-11-14T23:01:24.962Z,14.19
2022-11-14T23:03:55.504Z,14.27
2022-11-14T23:06:25.570Z,14.38
2022-11-14T23:08:53.719Z,14.42
2022-11-14T23:11:23.885Z,14.53
2022-11-14T23:13:53.414Z,14.34
2022-11-14T23:16:23.696Z,14.53
2022-11-14T23:18:52.464Z,14.60
2022-11-14T23:21:22.375Z,14.50
2022-11-14T23:23:54.956Z,14.52
2022-11-14T23:26:23.095Z,14.62
2022-11-14T23:28:50.849Z,14.69
2022-11-14T23:31:19.310Z,14.74
2022-11-14T23:33:47.312Z,14.68
2022-11-14T23:36:15.507Z,14.73
2022-11-14T23:38:43.618Z,14.73
2022-11-14T23:41:20.026Z,14.73
2022-11-14T23:43:48.294Z,14.57
2022-11-14T23:46:16.336Z,14.61
2022-11-14T23:48:44.056Z,14.75
2022-11-14T23:51:13.667Z,14.67
2022-11-14T23:53:41.711Z,14.45
2022-11-14T23:56:14.468Z,14.29
2022-11-14T23:58:42.655Z,14.49
